Waltham Cross, United Kingdom
Current Conditions -  °F | °C
As of 12:50 AM on Tuesday 25 Nov 2014 (Local Time) from EGLC Reporting Station
Haze Haze  
Wind Chill: 37°   Ceiling: Unl
Heat Index: 37°   Visibility: 2.8mi
Dew Point: 36°   Wind: 2mph
Humidity: 93%   Direction: 340°NNW
Pressure: 30.3"   Gusts: NA
Location:  51.7°N, 0.05°W
Report Text: EGLC 250050Z AUTO 34002KT 4600 BR NCD 03/02 Q1026
Loading
Personal Weather Stations






























Interactive Weather Map New forecast layout! Learn more

10-Day Weather Forecast

Advertisements
Track Severe Weather on mobile